sensor_id;sensor_type;location;lat;lon;timestamp;pressure;altitude;pressure_sealevel;temperature;humidity
9289;BME280;4683;50.864;12.086;2024-01-07T00:00:58;98811.22;;;1.77;100.00
9289;BME280;4683;50.864;12.086;2024-01-07T00:03:48;98811.22;;;1.77;100.00
9289;BME280;4683;50.864;12.086;2024-01-07T00:06:38;98808.63;;;1.77;100.00
9289;BME280;4683;50.864;12.086;2024-01-07T00:09:31;98811.22;;;1.77;100.00
9289;BME280;4683;50.864;12.086;2024-01-07T00:12:17;98820.97;;;1.95;100.00
9289;BME280;4683;50.864;12.086;2024-01-07T00:14:59;98820.03;;;1.96;100.00
9289;BME280;4683;50.864;12.086;2024-01-07T00:17:48;98837.34;;;1.86;100.00
9289;BME280;4683;50.864;12.086;2024-01-07T00:20:24;98837.88;;;1.80;100.00
9289;BME280;4683;50.864;12.086;2024-01-07T00:22:59;98842.66;;;1.74;100.00
9289;BME280;4683;50.864;12.086;2024-01-07T00:25:49;98858.50;;;1.71;100.00
9289;BME280;4683;50.864;12.086;2024-01-07T00:28:45;98837.13;;;1.68;100.00
9289;BME280;4683;50.864;12.086;2024-01-07T00:31:39;98841.09;;;1.62;100.00
9289;BME280;4683;50.864;12.086;2024-01-07T00:34:24;98846.56;;;1.59;100.00
9289;BME280;4683;50.864;12.086;2024-01-07T00:37:07;98845.94;;;1.46;100.00
9289;BME280;4683;50.864;12.086;2024-01-07T00:39:55;98850.38;;;1.55;100.00
9289;BME280;4683;50.864;12.086;2024-01-07T00:42:45;98844.84;;;1.69;100.00
9289;BME280;4683;50.864;12.086;2024-01-07T00:45:22;98851.75;;;1.90;100.00
9289;BME280;4683;50.864;12.086;2024-01-07T00:48:07;98857.06;;;1.78;100.00
9289;BME280;4683;50.864;12.086;2024-01-07T00:50:49;98859.50;;;1.80;100.00
9289;BME280;4683;50.864;12.086;2024-01-07T00:53:23;98862.31;;;1.67;100.00
9289;BME280;4683;50.864;12.086;2024-01-07T00:56:08;98864.19;;;1.56;100.00
9289;BME280;4683;50.864;12.086;2024-01-07T00:59:02;98864.63;;;1.61;100.00
9289;BME280;4683;50.864;12.086;2024-01-07T01:01:45;98871.31;;;1.63;100.00
9289;BME280;4683;50.864;12.086;2024-01-07T01:04:27;98869.44;;;1.65;100.00
9289;BME280;4683;50.864;12.086;2024-01-07T01:07:18;98874.06;;;1.62;100.00
9289;BME280;4683;50.864;12.086;2024-01-07T01:10:07;98872.56;;;1.59;100.00
9289;BME280;4683;50.864;12.086;2024-01-07T01:12:51;98875.72;;;1.42;100.00
9289;BME280;4683;50.864;12.086;2024-01-07T01:15:45;98874.91;;;1.41;100.00
9289;BME280;4683;50.864;12.086;2024-01-07T01:22:53;98877.69;;;1.49;100.00
9289;BME280;4683;50.864;12.086;2024-01-07T01:25:39;98885.16;;;1.43;100.00
9289;BME280;4683;50.864;12.086;2024-01-07T01:28:25;98887.00;;;1.52;100.00
9289;BME280;4683;50.864;12.086;2024-01-07T01:31:12;98889.41;;;1.65;100.00
9289;BME280;4683;50.864;12.086;2024-01-07T01:34:05;98893.59;;;1.56;100.00
9289;BME280;4683;50.864;12.086;2024-01-07T01:36:50;98897.41;;;1.52;100.00
9289;BME280;4683;50.864;12.086;2024-01-07T01:39:42;98902.56;;;1.31;100.00
9289;BME280;4683;50.864;12.086;2024-01-07T01:42:17;98907.25;;;1.16;100.00
9289;BME280;4683;50.864;12.086;2024-01-07T01:45:05;98910.66;;;1.28;100.00
9289;BME280;4683;50.864;12.086;2024-01-07T01:47:51;98908.16;;;1.26;100.00
9289;BME280;4683;50.864;12.086;2024-01-07T01:50:39;98913.28;;;1.17;100.00
9289;BME280;4683;50.864;12.086;2024-01-07T01:53:26;98916.53;;;1.09;100.00
9289;BME280;4683;50.864;12.086;2024-01-07T01:56:17;98921.28;;;1.25;100.00
9289;BME280;4683;50.864;12.086;2024-01-07T01:59:13;98927.28;;;1.25;100.00
9289;BME280;4683;50.864;12.086;2024-01-07T02:02:06;98935.47;;;1.21;100.00
9289;BME280;4683;50.864;12.086;2024-01-07T02:04:54;98936.38;;;0.99;100.00
9289;BME280;4683;50.864;12.086;2024-01-07T02:07:31;98933.75;;;1.10;100.00
9289;BME280;4683;50.864;12.086;2024-01-07T02:10:26;98949.59;;;0.96;100.00
9289;BME280;4683;50.864;12.086;2024-01-07T02:13:20;98949.13;;;0.91;100.00
9289;BME280;4683;50.864;12.086;2024-01-07T02:15:54;98945.25;;;0.96;100.00
9289;BME280;4683;50.864;12.086;2024-01-07T02:18:42;98956.22;;;1.00;100.00
9289;BME280;4683;50.864;12.086;2024-01-07T02:21:32;98957.63;;;0.93;100.00
9289;BME280;4683;50.864;12.086;2024-01-07T02:24:23;98957.41;;;0.96;100.00
9289;BME280;4683;50.864;12.086;2024-01-07T02:27:10;98951.66;;;1.13;100.00
9289;BME280;4683;50.864;12.086;2024-01-07T02:29:44;98959.63;;;1.33;100.00
9289;BME280;4683;50.864;12.086;2024-01-07T02:32:31;98976.19;;;1.20;100.00
9289;BME280;4683;50.864;12.086;2024-01-07T02:35:25;98969.09;;;1.22;100.00
9289;BME280;4683;50.864;12.086;2024-01-07T02:38:16;98972.19;;;1.27;100.00
9289;BME280;4683;50.864;12.086;2024-01-07T02:40:52;98969.47;;;1.18;100.00
9289;BME280;4683;50.864;12.086;2024-01-07T02:43:37;98972.03;;;1.29;100.00
9289;BME280;4683;50.864;12.086;2024-01-07T02:46:23;98976.88;;;1.34;100.00
9289;BME280;4683;50.864;12.086;2024-01-07T02:49:04;98977.59;;;1.24;100.00
9289;BME280;4683;50.864;12.086;2024-01-07T02:51:46;98985.97;;;0.96;100.00
9289;BME280;4683;50.864;12.086;2024-01-07T02:54:38;98979.91;;;1.07;100.00
9289;BME280;4683;50.864;12.086;2024-01-07T02:57:29;98987.97;;;0.92;100.00
9289;BME280;4683;50.864;12.086;2024-01-07T03:00:22;98988.19;;;0.89;100.00
9289;BME280;4683;50.864;12.086;2024-01-07T03:03:13;98986.66;;;0.98;100.00
9289;BME280;4683;50.864;12.086;2024-01-07T03:06:06;98983.47;;;0.94;100.00
9289;BME280;4683;50.864;12.086;2024-01-07T03:08:48;98992.94;;;0.95;100.00
9289;BME280;4683;50.864;12.086;2024-01-07T03:11:39;98983.53;;;0.61;100.00
9289;BME280;4683;50.864;12.086;2024-01-07T03:14:32;98987.97;;;0.81;100.00
9289;BME280;4683;50.864;12.086;2024-01-07T03:17:19;98980.97;;;1.04;100.00
9289;BME280;4683;50.864;12.086;2024-01-07T03:20:15;98990.75;;;1.12;100.00
9289;BME280;4683;50.864;12.086;2024-01-07T03:23:02;98997.53;;;0.92;100.00
9289;BME280;4683;50.864;12.086;2024-01-07T03:25:34;98993.75;;;0.96;100.00
9289;BME280;4683;50.864;12.086;2024-01-07T03:28:30;99003.06;;;0.98;100.00
9289;BME280;4683;50.864;12.086;2024-01-07T03:31:11;98996.31;;;1.07;100.00
9289;BME280;4683;50.864;12.086;2024-01-07T03:34:07;98996.53;;;1.04;100.00
9289;BME280;4683;50.864;12.086;2024-01-07T03:36:41;99013.13;;;0.92;100.00
9289;BME280;4683;50.864;12.086;2024-01-07T03:39:15;99017.13;;;0.85;100.00
9289;BME280;4683;50.864;12.086;2024-01-07T03:41:58;99015.72;;;0.81;100.00
9289;BME280;4683;50.864;12.086;2024-01-07T03:44:31;99012.41;;;0.79;100.00
9289;BME280;4683;50.864;12.086;2024-01-07T03:47:08;99023.03;;;0.75;100.00
9289;BME280;4683;50.864;12.086;2024-01-07T03:49:51;99018.31;;;0.69;100.00
9289;BME280;4683;50.864;12.086;2024-01-07T03:52:40;99025.84;;;0.72;100.00
9289;BME280;4683;50.864;12.086;2024-01-07T03:55:14;99025.03;;;0.83;100.00
9289;BME280;4683;50.864;12.086;2024-01-07T03:57:47;99035.53;;;0.82;100.00
9289;BME280;4683;50.864;12.086;2024-01-07T04:00:37;99036.72;;;0.78;100.00
9289;BME280;4683;50.864;12.086;2024-01-07T04:03:20;99040.00;;;0.91;100.00
9289;BME280;4683;50.864;12.086;2024-01-07T04:05:58;99037.88;;;0.85;100.00
9289;BME280;4683;50.864;12.086;2024-01-07T04:08:38;99039.69;;;0.73;100.00
9289;BME280;4683;50.864;12.086;2024-01-07T04:11:24;99049.91;;;0.86;100.00
9289;BME280;4683;50.864;12.086;2024-01-07T04:14:00;99047.56;;;0.94;100.00
9289;BME280;4683;50.864;12.086;2024-01-07T04:16:44;99045.19;;;0.91;100.00
9289;BME280;4683;50.864;12.086;2024-01-07T04:19:21;99055.38;;;0.83;100.00
9289;BME280;4683;50.864;12.086;2024-01-07T04:22:01;99056.78;;;0.75;100.00
9289;BME280;4683;50.864;12.086;2024-01-07T04:24:41;99059.59;;;0.72;100.00
9289;BME280;4683;50.864;12.086;2024-01-07T04:27:22;99057.25;;;0.81;100.00
9289;BME280;4683;50.864;12.086;2024-01-07T04:29:53;99063.03;;;0.73;100.00
9289;BME280;4683;50.864;12.086;2024-01-07T04:32:28;99075.53;;;0.57;100.00
9289;BME280;4683;50.864;12.086;2024-01-07T04:35:07;99070.44;;;0.44;100.00
9289;BME280;4683;50.864;12.086;2024-01-07T04:37:43;99067.72;;;0.45;100.00
9289;BME280;4683;50.864;12.086;2024-01-07T04:40:16;99069.16;;;0.38;100.00
9289;BME280;4683;50.864;12.086;2024-01-07T04:42:49;99075.16;;;0.39;100.00
9289;BME280;4683;50.864;12.086;2024-01-07T04:45:24;99068.56;;;0.46;100.00
9289;BME280;4683;50.864;12.086;2024-01-07T04:48:00;99081.03;;;0.41;100.00
9289;BME280;4683;50.864;12.086;2024-01-07T04:50:42;99080.78;;;0.21;100.00
9289;BME280;4683;50.864;12.086;2024-01-07T04:53:18;99076.81;;;0.40;100.00
9289;BME280;4683;50.864;12.086;2024-01-07T04:55:55;99091.06;;;0.34;100.00
9289;BME280;4683;50.864;12.086;2024-01-07T04:58:24;99086.22;;;0.41;100.00
9289;BME280;4683;50.864;12.086;2024-01-07T05:01:05;99090.28;;;0.56;100.00
9289;BME280;4683;50.864;12.086;2024-01-07T05:03:41;99096.50;;;0.54;100.00
9289;BME280;4683;50.864;12.086;2024-01-07T05:06:19;99102.97;;;0.25;100.00
9289;BME280;4683;50.864;12.086;2024-01-07T05:09:14;99111.69;;;0.24;100.00
9289;BME280;4683;50.864;12.086;2024-01-07T05:11:46;99111.69;;;0.24;100.00
9289;BME280;4683;50.864;12.086;2024-01-07T05:14:29;99121.91;;;0.15;100.00
9289;BME280;4683;50.864;12.086;2024-01-07T05:17:04;99119.25;;;0.28;100.00
9289;BME280;4683;50.864;12.086;2024-01-07T05:19:42;99129.56;;;0.16;100.00
9289;BME280;4683;50.864;12.086;2024-01-07T05:22:21;99129.03;;;0.35;100.00
9289;BME280;4683;50.864;12.086;2024-01-07T05:25:01;99121.09;;;0.25;100.00
9289;BME280;4683;50.864;12.086;2024-01-07T05:27:33;99129.84;;;0.36;100.00
9289;BME280;4683;50.864;12.086;2024-01-07T05:30:08;99126.84;;;0.53;100.00
9289;BME280;4683;50.864;12.086;2024-01-07T05:32:46;99132.28;;;0.50;100.00
9289;BME280;4683;50.864;12.086;2024-01-07T05:35:23;99144.94;;;0.31;100.00
9289;BME280;4683;50.864;12.086;2024-01-07T05:38:02;99153.03;;;0.15;100.00
9289;BME280;4683;50.864;12.086;2024-01-07T05:40:43;99148.47;;;0.18;100.00
9289;BME280;4683;50.864;12.086;2024-01-07T05:43:31;99150.88;;;0.09;100.00
9289;BME280;4683;50.864;12.086;2024-01-07T05:46:13;99154.34;;;0.20;100.00
9289;BME280;4683;50.864;12.086;2024-01-07T05:48:45;99162.59;;;0.14;100.00
9289;BME280;4683;50.864;12.086;2024-01-07T05:51:27;99149.19;;;0.32;100.00
9289;BME280;4683;50.864;12.086;2024-01-07T05:54:03;99155.03;;;0.22;100.00
9289;BME280;4683;50.864;12.086;2024-01-07T05:56:48;99168.59;;;0.15;100.00
9289;BME280;4683;50.864;12.086;2024-01-07T05:59:20;99169.03;;;0.09;100.00
9289;BME280;4683;50.864;12.086;2024-01-07T06:02:03;99167.78;;;0.14;100.00
9289;BME280;4683;50.864;12.086;2024-01-07T06:04:56;99166.84;;;0.27;100.00
9289;BME280;4683;50.864;12.086;2024-01-07T06:07:30;99171.94;;;0.28;100.00
9289;BME280;4683;50.864;12.086;2024-01-07T06:10:05;99180.81;;;0.37;100.00
9289;BME280;4683;50.864;12.086;2024-01-07T06:12:42;99183.03;;;0.30;100.00
9289;BME280;4683;50.864;12.086;2024-01-07T06:15:15;99190.09;;;0.28;100.00
9289;BME280;4683;50.864;12.086;2024-01-07T06:17:49;99187.66;;;0.38;100.00
9289;BME280;4683;50.864;12.086;2024-01-07T06:20:27;99197.16;;;0.26;100.00
9289;BME280;4683;50.864;12.086;2024-01-07T06:23:01;99197.53;;;0.33;100.00
9289;BME280;4683;50.864;12.086;2024-01-07T06:25:40;99207.88;;;0.21;100.00
9289;BME280;4683;50.864;12.086;2024-01-07T06:28:19;99217.28;;;0.22;100.00
9289;BME280;4683;50.864;12.086;2024-01-07T06:30:52;99226.06;;;0.09;100.00
9289;BME280;4683;50.864;12.086;2024-01-07T06:33:29;99241.09;;;-0.08;100.00
9289;BME280;4683;50.864;12.086;2024-01-07T06:36:09;99227.78;;;-0.03;100.00
9289;BME280;4683;50.864;12.086;2024-01-07T06:38:43;99235.72;;;-0.17;100.00
9289;BME280;4683;50.864;12.086;2024-01-07T06:41:30;99241.56;;;-0.27;100.00
9289;BME280;4683;50.864;12.086;2024-01-07T06:44:11;99230.88;;;-0.22;100.00
9289;BME280;4683;50.864;12.086;2024-01-07T06:46:54;99238.16;;;-0.03;100.00
9289;BME280;4683;50.864;12.086;2024-01-07T06:49:28;99246.81;;;0.09;100.00
9289;BME280;4683;50.864;12.086;2024-01-07T06:52:02;99249.72;;;0.04;100.00
9289;BME280;4683;50.864;12.086;2024-01-07T06:54:35;99254.25;;;0.13;100.00
9289;BME280;4683;50.864;12.086;2024-01-07T06:57:15;99260.56;;;-0.02;100.00
9289;BME280;4683;50.864;12.086;2024-01-07T07:00:07;99254.81;;;0.06;100.00
9289;BME280;4683;50.864;12.086;2024-01-07T07:02:52;99258.91;;;-0.03;100.00
9289;BME280;4683;50.864;12.086;2024-01-07T07:05:30;99258.25;;;0.06;100.00
9289;BME280;4683;50.864;12.086;2024-01-07T07:08:04;99264.63;;;0.13;100.00
9289;BME280;4683;50.864;12.086;2024-01-07T07:10:41;99278.03;;;0.07;100.00
9289;BME280;4683;50.864;12.086;2024-01-07T07:13:20;99281.09;;;0.01;100.00
9289;BME280;4683;50.864;12.086;2024-01-07T07:15:53;99274.31;;;0.11;100.00
9289;BME280;4683;50.864;12.086;2024-01-07T07:18:25;99273.75;;;0.19;100.00
9289;BME280;4683;50.864;12.086;2024-01-07T07:21:05;99290.41;;;0.04;100.00
9289;BME280;4683;50.864;12.086;2024-01-07T07:23:59;99301.22;;;-0.15;100.00
9289;BME280;4683;50.864;12.086;2024-01-07T07:26:40;99300.78;;;-0.09;100.00
9289;BME280;4683;50.864;12.086;2024-01-07T07:29:19;99308.78;;;0.01;100.00
9289;BME280;4683;50.864;12.086;2024-01-07T07:32:04;99308.47;;;-0.08;100.00
9289;BME280;4683;50.864;12.086;2024-01-07T07:34:57;99309.91;;;0.09;100.00
9289;BME280;4683;50.864;12.086;2024-01-07T07:38:00;99332.19;;;-0.01;100.00
9289;BME280;4683;50.864;12.086;2024-01-07T07:40:39;99319.25;;;-0.14;100.00
9289;BME280;4683;50.864;12.086;2024-01-07T07:43:28;99324.44;;;-0.14;100.00
9289;BME280;4683;50.864;12.086;2024-01-07T07:46:14;99324.88;;;-0.20;100.00
9289;BME280;4683;50.864;12.086;2024-01-07T07:48:54;99327.88;;;-0.13;100.00
9289;BME280;4683;50.864;12.086;2024-01-07T07:51:31;99330.03;;;-0.07;100.00
9289;BME280;4683;50.864;12.086;2024-01-07T07:54:09;99334.09;;;-0.03;100.00
9289;BME280;4683;50.864;12.086;2024-01-07T07:56:46;99342.50;;;0.01;100.00
9289;BME280;4683;50.864;12.086;2024-01-07T07:59:25;99348.09;;;-0.18;100.00
9289;BME280;4683;50.864;12.086;2024-01-07T08:02:17;99344.84;;;-0.09;100.00
9289;BME280;4683;50.864;12.086;2024-01-07T08:05:07;99352.84;;;0.01;100.00
9289;BME280;4683;50.864;12.086;2024-01-07T08:07:44;99355.84;;;0.07;100.00
9289;BME280;4683;50.864;12.086;2024-01-07T08:10:22;99365.25;;;0.08;100.00
9289;BME280;4683;50.864;12.086;2024-01-07T08:13:12;99365.50;;;0.05;100.00
9289;BME280;4683;50.864;12.086;2024-01-07T08:15:50;99369.88;;;-0.21;100.00
9289;BME280;4683;50.864;12.086;2024-01-07T08:18:40;99374.63;;;-0.15;100.00
9289;BME280;4683;50.864;12.086;2024-01-07T08:21:20;99384.16;;;-0.03;100.00
9289;BME280;4683;50.864;12.086;2024-01-07T08:24:07;99385.41;;;0.05;100.00
9289;BME280;4683;50.864;12.086;2024-01-07T08:27:09;99386.63;;;0.12;100.00
9289;BME280;4683;50.864;12.086;2024-01-07T08:30:01;99389.56;;;-0.18;100.00
9289;BME280;4683;50.864;12.086;2024-01-07T08:32:44;99385.75;;;-0.26;100.00
9289;BME280;4683;50.864;12.086;2024-01-07T08:35:18;99383.97;;;-0.25;100.00
9289;BME280;4683;50.864;12.086;2024-01-07T08:37:57;99400.63;;;-0.55;100.00
9289;BME280;4683;50.864;12.086;2024-01-07T08:40:35;99392.75;;;-0.66;100.00
9289;BME280;4683;50.864;12.086;2024-01-07T08:43:13;99394.94;;;-0.72;100.00
9289;BME280;4683;50.864;12.086;2024-01-07T08:45:55;99392.00;;;-0.81;100.00
9289;BME280;4683;50.864;12.086;2024-01-07T08:48:36;99396.38;;;-0.81;100.00
9289;BME280;4683;50.864;12.086;2024-01-07T08:51:16;99385.72;;;-0.77;100.00
9289;BME280;4683;50.864;12.086;2024-01-07T08:53:54;99397.13;;;-0.66;100.00
9289;BME280;4683;50.864;12.086;2024-01-07T08:56:36;99397.63;;;-0.61;100.00
9289;BME280;4683;50.864;12.086;2024-01-07T08:59:14;99397.66;;;-0.48;100.00
9289;BME280;4683;50.864;12.086;2024-01-07T09:01:51;99409.88;;;-0.51;100.00
9289;BME280;4683;50.864;12.086;2024-01-07T09:04:24;99416.28;;;-0.56;100.00
9289;BME280;4683;50.864;12.086;2024-01-07T09:07:02;99421.06;;;-0.50;100.00
9289;BME280;4683;50.864;12.086;2024-01-07T09:09:37;99425.59;;;-0.66;100.00
9289;BME280;4683;50.864;12.086;2024-01-07T09:12:20;99438.88;;;-0.58;100.00
9289;BME280;4683;50.864;12.086;2024-01-07T09:14:56;99438.66;;;-0.55;100.00
9289;BME280;4683;50.864;12.086;2024-01-07T09:17:31;99440.72;;;-0.60;100.00
9289;BME280;4683;50.864;12.086;2024-01-07T09:20:18;99456.38;;;-0.62;100.00
9289;BME280;4683;50.864;12.086;2024-01-07T09:23:00;99449.72;;;-0.66;100.00
9289;BME280;4683;50.864;12.086;2024-01-07T09:25:40;99445.31;;;-0.51;100.00
9289;BME280;4683;50.864;12.086;2024-01-07T09:28:32;99444.69;;;-0.42;100.00
9289;BME280;4683;50.864;12.086;2024-01-07T09:31:06;99445.22;;;-0.37;100.00
9289;BME280;4683;50.864;12.086;2024-01-07T09:33:55;99445.53;;;-0.41;100.00
9289;BME280;4683;50.864;12.086;2024-01-07T09:36:31;99449.63;;;-0.64;100.00
9289;BME280;4683;50.864;12.086;2024-01-07T09:39:08;99444.44;;;-0.77;100.00
9289;BME280;4683;50.864;12.086;2024-01-07T09:41:45;99444.22;;;-0.74;100.00
9289;BME280;4683;50.864;12.086;2024-01-07T09:44:19;99455.69;;;-0.78;100.00
9289;BME280;4683;50.864;12.086;2024-01-07T09:47:02;99449.81;;;-0.80;100.00
9289;BME280;4683;50.864;12.086;2024-01-07T09:49:54;99453.94;;;-0.78;100.00
9289;BME280;4683;50.864;12.086;2024-01-07T09:52:44;99453.34;;;-0.68;100.00
9289;BME280;4683;50.864;12.086;2024-01-07T09:55:43;99464.28;;;-0.78;100.00
9289;BME280;4683;50.864;12.086;2024-01-07T09:58:25;99459.91;;;-0.63;100.00
9289;BME280;4683;50.864;12.086;2024-01-07T10:01:00;99476.56;;;-0.67;100.00
9289;BME280;4683;50.864;12.086;2024-01-07T10:03:44;99474.66;;;-0.78;100.00
9289;BME280;4683;50.864;12.086;2024-01-07T10:06:22;99482.28;;;-0.89;100.00
9289;BME280;4683;50.864;12.086;2024-01-07T10:08:59;99473.50;;;-0.86;100.00
9289;BME280;4683;50.864;12.086;2024-01-07T10:11:34;99483.94;;;-0.88;100.00
9289;BME280;4683;50.864;12.086;2024-01-07T10:14:08;99480.25;;;-0.84;100.00
9289;BME280;4683;50.864;12.086;2024-01-07T10:16:42;99489.59;;;-0.81;100.00
9289;BME280;4683;50.864;12.086;2024-01-07T10:19:28;99493.88;;;-0.94;100.00
9289;BME280;4683;50.864;12.086;2024-01-07T10:22:11;99492.47;;;-1.00;100.00
9289;BME280;4683;50.864;12.086;2024-01-07T10:24:54;99499.00;;;-1.07;100.00
9289;BME280;4683;50.864;12.086;2024-01-07T10:27:36;99495.72;;;-0.96;100.00
9289;BME280;4683;50.864;12.086;2024-01-07T10:30:16;99491.38;;;-0.96;100.00
9289;BME280;4683;50.864;12.086;2024-01-07T10:32:46;99494.53;;;-0.91;100.00
9289;BME280;4683;50.864;12.086;2024-01-07T10:35:35;99490.75;;;-0.99;100.00
9289;BME280;4683;50.864;12.086;2024-01-07T10:38:34;99489.34;;;-0.91;100.00
9289;BME280;4683;50.864;12.086;2024-01-07T10:41:08;99495.28;;;-1.03;100.00
9289;BME280;4683;50.864;12.086;2024-01-07T10:43:42;99497.66;;;-1.00;100.00
9289;BME280;4683;50.864;12.086;2024-01-07T10:46:28;99502.13;;;-1.02;100.00
9289;BME280;4683;50.864;12.086;2024-01-07T10:49:15;99495.28;;;-1.03;100.00
9289;BME280;4683;50.864;12.086;2024-01-07T10:52:04;99503.00;;;-0.89;100.00
9289;BME280;4683;50.864;12.086;2024-01-07T10:54:38;99511.25;;;-0.96;100.00
9289;BME280;4683;50.864;12.086;2024-01-07T10:57:34;99504.53;;;-0.99;100.00
9289;BME280;4683;50.864;12.086;2024-01-07T11:00:14;99504.00;;;-0.91;100.00
9289;BME280;4683;50.864;12.086;2024-01-07T11:03:04;99509.19;;;-0.91;100.00
9289;BME280;4683;50.864;12.086;2024-01-07T11:05:54;99510.81;;;-1.03;100.00
9289;BME280;4683;50.864;12.086;2024-01-07T11:08:43;99514.81;;;-1.12;100.00
9289;BME280;4683;50.864;12.086;2024-01-07T11:11:29;99512.06;;;-0.96;100.00
9289;BME280;4683;50.864;12.086;2024-01-07T11:14:34;99518.72;;;-0.92;100.00
9289;BME280;4683;50.864;12.086;2024-01-07T11:17:40;99521.13;;;-0.89;100.00
9289;BME280;4683;50.864;12.086;2024-01-07T11:20:35;99523.53;;;-0.86;100.00
9289;BME280;4683;50.864;12.086;2024-01-07T11:23:27;99525.84;;;-0.95;100.00
9289;BME280;4683;50.864;12.086;2024-01-07T11:26:01;99523.72;;;-0.89;100.00
9289;BME280;4683;50.864;12.086;2024-01-07T11:28:47;99525.78;;;-0.94;100.00
9289;BME280;4683;50.864;12.086;2024-01-07T11:31:45;99533.94;;;-1.14;100.00
9289;BME280;4683;50.864;12.086;2024-01-07T11:34:40;99517.41;;;-1.12;100.00
9289;BME280;4683;50.864;12.086;2024-01-07T11:37:16;99523.53;;;-0.86;100.00
9289;BME280;4683;50.864;12.086;2024-01-07T11:40:06;99529.19;;;-0.93;100.00
9289;BME280;4683;50.864;12.086;2024-01-07T11:42:50;99527.25;;;-0.90;100.00
9289;BME280;4683;50.864;12.086;2024-01-07T11:45:31;99526.13;;;-1.00;100.00
9289;BME280;4683;50.864;12.086;2024-01-07T11:48:01;99529.53;;;-0.85;100.00
9289;BME280;4683;50.864;12.086;2024-01-07T11:50:39;99533.63;;;-0.68;100.00
9289;BME280;4683;50.864;12.086;2024-01-07T11:57:24;99534.13;;;-1.17;100.00
9289;BME280;4683;50.864;12.086;2024-01-07T11:59:55;99533.19;;;-1.02;100.00
9289;BME280;4683;50.864;12.086;2024-01-07T12:02:32;99536.16;;;-1.08;100.00
9289;BME280;4683;50.864;12.086;2024-01-07T12:05:11;99539.34;;;-1.32;100.00
9289;BME280;4683;50.864;12.086;2024-01-07T12:08:03;99541.69;;;-1.14;100.00
9289;BME280;4683;50.864;12.086;2024-01-07T12:10:44;99548.06;;;-1.06;100.00
9289;BME280;4683;50.864;12.086;2024-01-07T12:13:38;99554.63;;;-1.14;100.00
9289;BME280;4683;50.864;12.086;2024-01-07T12:16:31;99554.81;;;-1.03;100.00
9289;BME280;4683;50.864;12.086;2024-01-07T12:19:20;99554.47;;;-1.11;100.00
9289;BME280;4683;50.864;12.086;2024-01-07T12:22:11;99556.22;;;-1.26;100.00
9289;BME280;4683;50.864;12.086;2024-01-07T12:24:45;99552.22;;;-1.03;100.00
9289;BME280;4683;50.864;12.086;2024-01-07T12:27:18;99557.19;;;-1.00;100.00
9289;BME280;4683;50.864;12.086;2024-01-07T12:29:58;99559.81;;;-1.14;100.00
9289;BME280;4683;50.864;12.086;2024-01-07T12:32:35;99560.34;;;-1.09;100.00
9289;BME280;4683;50.864;12.086;2024-01-07T12:35:09;99564.13;;;-1.00;100.00
9289;BME280;4683;50.864;12.086;2024-01-07T12:37:50;99565.78;;;-0.85;100.00
9289;BME280;4683;50.864;12.086;2024-01-07T12:40:33;99568.22;;;-0.69;100.00
9289;BME280;4683;50.864;12.086;2024-01-07T12:43:09;99564.75;;;-0.83;100.00
9289;BME280;4683;50.864;12.086;2024-01-07T12:45:53;99567.91;;;-0.92;100.00
9289;BME280;4683;50.864;12.086;2024-01-07T12:48:27;99569.03;;;-0.96;100.00
9289;BME280;4683;50.864;12.086;2024-01-07T12:51:16;99573.63;;;-0.87;100.00
9289;BME280;4683;50.864;12.086;2024-01-07T12:53:56;99586.94;;;-0.79;100.00
9289;BME280;4683;50.864;12.086;2024-01-07T12:56:52;99579.84;;;-0.89;100.00
9289;BME280;4683;50.864;12.086;2024-01-07T12:59:31;99578.94;;;-1.03;100.00
9289;BME280;4683;50.864;12.086;2024-01-07T13:02:08;99588.09;;;-0.97;100.00
9289;BME280;4683;50.864;12.086;2024-01-07T13:04:47;99592.34;;;-0.82;100.00
9289;BME280;4683;50.864;12.086;2024-01-07T13:07:15;99596.66;;;-0.82;100.00
9289;BME280;4683;50.864;12.086;2024-01-07T13:09:52;99596.22;;;-0.89;100.00
9289;BME280;4683;50.864;12.086;2024-01-07T13:12:27;99593.66;;;-1.03;100.00
9289;BME280;4683;50.864;12.086;2024-01-07T13:15:03;99598.00;;;-1.04;100.00
9289;BME280;4683;50.864;12.086;2024-01-07T13:17:36;99613.16;;;-1.12;100.00
9289;BME280;4683;50.864;12.086;2024-01-07T13:20:12;99608.09;;;-1.13;100.00
9289;BME280;4683;50.864;12.086;2024-01-07T13:22:52;99613.31;;;-1.00;100.00
9289;BME280;4683;50.864;12.086;2024-01-07T13:25:34;99613.34;;;-0.86;100.00
9289;BME280;4683;50.864;12.086;2024-01-07T13:28:14;99607.69;;;-0.93;100.00
9289;BME280;4683;50.864;12.086;2024-01-07T13:30:51;99615.06;;;-0.87;100.00
9289;BME280;4683;50.864;12.086;2024-01-07T13:33:26;99622.63;;;-0.69;100.00
9289;BME280;4683;50.864;12.086;2024-01-07T13:36:02;99628.78;;;-0.99;100.00
9289;BME280;4683;50.864;12.086;2024-01-07T13:38:43;99619.16;;;-0.97;100.00
9289;BME280;4683;50.864;12.086;2024-01-07T13:41:21;99626.03;;;-0.69;100.00
9289;BME280;4683;50.864;12.086;2024-01-07T13:43:56;99627.44;;;-0.78;100.00
9289;BME280;4683;50.864;12.086;2024-01-07T13:46:36;99637.53;;;-0.59;100.00
9289;BME280;4683;50.864;12.086;2024-01-07T13:49:12;99634.63;;;-0.54;100.00
9289;BME280;4683;50.864;12.086;2024-01-07T13:51:50;99643.84;;;-0.50;100.00
9289;BME280;4683;50.864;12.086;2024-01-07T13:54:29;99647.38;;;-0.51;100.00
9289;BME280;4683;50.864;12.086;2024-01-07T13:57:15;99636.41;;;-0.69;100.00
9289;BME280;4683;50.864;12.086;2024-01-07T13:59:53;99645.97;;;-0.98;100.00
9289;BME280;4683;50.864;12.086;2024-01-07T14:02:26;99647.34;;;-0.92;100.00
9289;BME280;4683;50.864;12.086;2024-01-07T14:05:06;99649.75;;;-1.04;100.00
9289;BME280;4683;50.864;12.086;2024-01-07T14:07:44;99648.94;;;-0.90;100.00
9289;BME280;4683;50.864;12.086;2024-01-07T14:10:23;99648.09;;;-0.90;100.00
9289;BME280;4683;50.864;12.086;2024-01-07T14:12:56;99646.88;;;-0.85;100.00
9289;BME280;4683;50.864;12.086;2024-01-07T14:15:40;99655.78;;;-1.03;100.00
9289;BME280;4683;50.864;12.086;2024-01-07T14:18:14;99663.91;;;-0.95;100.00
9289;BME280;4683;50.864;12.086;2024-01-07T14:20:54;99657.44;;;-1.02;100.00
9289;BME280;4683;50.864;12.086;2024-01-07T14:23:30;99658.09;;;-0.98;100.00
9289;BME280;4683;50.864;12.086;2024-01-07T14:26:02;99662.81;;;-0.91;100.00
9289;BME280;4683;50.864;12.086;2024-01-07T14:28:56;99666.78;;;-0.85;100.00
9289;BME280;4683;50.864;12.086;2024-01-07T14:31:29;99674.16;;;-0.79;100.00